Time;durP1;ratioP1;P1;durP2;ratioP2;P2;SDS_P1;SDS_P2;PMS_P1;PMS_P2;Temp;Humidity;BMP_temperature;BMP_pressure;BME280_temperature;BME280_humidity;BME280_pressure;Samples;Min_cycle;Max_cycle;Signal;HPM_P1;HPM_P2
2023/03/25 00:01:12;;;;;;;8.07;5.90;;;;;;;10.70;49.29;100740.97;5052047;28;21098;-75
2023/03/25 00:03:41;;;;;;;7.15;6.00;;;;;;;10.67;49.34;100739.47;5052127;28;20404;-75
2023/03/25 00:06:09;;;;;;;8.55;6.28;;;;;;;10.60;49.21;100732.38;5051431;28;20409;-75
2023/03/25 00:08:36;;;;;;;8.38;6.07;;;;;;;10.56;49.50;100736.34;5052357;28;20795;-75
2023/03/25 00:11:07;;;;;;;9.35;6.97;;;;;;;10.55;49.63;100737.34;5052204;28;20395;-75
2023/03/25 00:13:33;;;;;;;9.75;6.88;;;;;;;10.52;49.76;100741.19;5052163;28;20388;-75
2023/03/25 00:16:00;;;;;;;10.60;7.50;;;;;;;10.38;49.98;100741.84;5051775;28;20408;-75
2023/03/25 00:18:32;;;;;;;10.02;6.68;;;;;;;10.44;49.96;100739.38;5051800;28;20393;-75
2023/03/25 00:21:00;;;;;;;8.88;6.00;;;;;;;10.18;50.38;100741.34;5052040;28;20788;-76
2023/03/25 00:23:26;;;;;;;9.27;6.43;;;;;;;10.21;50.67;100741.84;5052088;28;20380;-75
2023/03/25 00:25:52;;;;;;;8.77;6.30;;;;;;;10.25;50.44;100740.50;5051930;28;20465;-75
2023/03/25 00:28:18;;;;;;;8.47;6.40;;;;;;;10.37;50.15;100737.53;5051955;28;20468;-74
2023/03/25 00:30:44;;;;;;;9.20;6.43;;;;;;;10.36;49.90;100736.72;5050972;28;21048;-77
2023/03/25 00:33:12;;;;;;;9.27;6.85;;;;;;;10.20;50.53;100721.63;5051424;28;20377;-75
2023/03/25 00:35:43;;;;;;;9.57;6.32;;;;;;;10.26;50.03;100717.50;5051735;28;20405;-75
2023/03/25 00:38:36;;;;;;;10.95;6.63;;;;;;;10.36;49.69;100704.94;5051671;28;20384;-75
2023/03/25 00:41:16;;;;;;;7.47;6.50;;;;;;;10.41;49.53;100709.72;5051740;28;20361;-75
2023/03/25 00:43:42;;;;;;;9.48;7.40;;;;;;;10.42;50.02;100711.38;5051412;28;20940;-75
2023/03/25 00:46:08;;;;;;;9.10;6.70;;;;;;;10.49;49.88;100707.88;5051537;28;20461;-75
2023/03/25 00:48:33;;;;;;;8.40;6.50;;;;;;;10.43;49.63;100705.91;5051614;28;20455;-75
2023/03/25 00:51:06;;;;;;;8.35;6.70;;;;;;;10.36;50.00;100694.31;5051364;28;20495;-75
2023/03/25 00:53:33;;;;;;;9.15;6.50;;;;;;;10.24;50.40;100688.50;5051477;28;20388;-75
2023/03/25 00:56:00;;;;;;;8.25;6.43;;;;;;;10.23;50.59;100692.16;5051378;28;20409;-75
2023/03/25 00:58:25;;;;;;;8.67;6.40;;;;;;;10.25;50.33;100692.81;5051441;28;20475;-75
2023/03/25 01:00:51;;;;;;;8.13;6.40;;;;;;;10.09;50.93;100691.03;5051239;28;20467;-75
2023/03/25 01:03:17;;;;;;;9.73;6.47;;;;;;;10.11;50.70;100696.97;5050151;28;20427;-75
2023/03/25 01:05:43;;;;;;;10.73;7.60;;;;;;;10.03;50.88;100698.78;5051375;28;20733;-75
2023/03/25 01:08:09;;;;;;;10.10;6.00;;;;;;;10.03;51.05;100697.00;5051310;28;20853;-75
2023/03/25 01:10:36;;;;;;;8.67;6.70;;;;;;;10.04;51.05;100690.69;5051258;28;20780;-75
2023/03/25 01:13:01;;;;;;;9.02;6.28;;;;;;;10.24;50.06;100690.34;5051318;28;20786;-75
2023/03/25 01:15:27;;;;;;;8.03;6.20;;;;;;;10.22;50.23;100685.22;5050174;28;20470;-75
2023/03/25 01:17:52;;;;;;;8.15;6.13;;;;;;;10.16;50.81;100690.38;5049786;28;20385;-75
2023/03/25 01:20:18;;;;;;;8.60;6.03;;;;;;;10.02;51.28;100689.22;5051089;28;20392;-75
2023/03/25 01:22:43;;;;;;;8.50;5.88;;;;;;;9.94;51.28;100684.75;5051044;28;20479;-74
2023/03/25 01:25:09;;;;;;;9.13;5.93;;;;;;;9.92;51.19;100689.38;5051086;28;20431;-75
2023/03/25 01:27:35;;;;;;;8.37;6.00;;;;;;;9.82;51.74;100699.31;5051296;28;20400;-75
2023/03/25 01:30:00;;;;;;;10.70;6.20;;;;;;;9.72;51.71;100702.13;5050990;28;20872;-75
2023/03/25 01:32:28;;;;;;;7.03;5.57;;;;;;;9.54;52.25;100689.88;5050797;28;20396;-75
2023/03/25 01:34:53;;;;;;;7.10;5.90;;;;;;;9.57;52.14;100691.34;5050954;28;20392;-75
2023/03/25 01:37:19;;;;;;;7.30;6.10;;;;;;;9.66;51.55;100682.44;5051024;28;20389;-75
2023/03/25 01:39:45;;;;;;;8.37;5.90;;;;;;;9.69;51.69;100682.09;5050042;28;20455;-75
2023/03/25 01:42:11;;;;;;;7.13;6.03;;;;;;;9.71;51.45;100688.06;5050882;28;20387;-75
2023/03/25 01:44:36;;;;;;;8.87;6.37;;;;;;;9.70;51.36;100680.28;5050855;28;20963;-75
2023/03/25 01:47:04;;;;;;;8.83;5.93;;;;;;;9.65;52.08;100679.94;5049521;28;20384;-75
2023/03/25 01:49:37;;;;;;;8.90;6.30;;;;;;;9.57;51.79;100673.66;5051294;28;20792;-74
2023/03/25 01:52:24;;;;;;;11.25;6.55;;;;;;;9.64;51.93;100671.19;5053511;28;20419;-74
2023/03/25 01:54:52;;;;;;;7.72;5.80;;;;;;;9.55;51.76;100667.69;5054713;28;20397;-75
2023/03/25 01:57:20;;;;;;;7.75;6.18;;;;;;;9.54;51.71;100666.06;5054891;28;20745;-75
2023/03/25 01:59:47;;;;;;;7.03;5.80;;;;;;;9.60;51.76;100669.88;5054734;28;21597;-75
2023/03/25 02:02:17;;;;;;;7.63;5.72;;;;;;;9.61;51.72;100666.22;5054888;28;20387;-76
2023/03/25 02:04:58;;;;;;;11.18;6.53;;;;;;;9.62;51.98;100657.28;5054763;28;20920;-75
2023/03/25 02:07:29;;;;;;;8.50;5.97;;;;;;;9.68;51.40;100659.25;5054523;28;20381;-75
2023/03/25 02:09:58;;;;;;;10.90;8.30;;;;;;;9.68;51.75;100658.44;5054492;28;20399;-75
2023/03/25 02:12:24;;;;;;;7.68;6.22;;;;;;;9.57;51.42;100667.53;5054519;28;20388;-75
2023/03/25 02:14:49;;;;;;;8.77;6.60;;;;;;;9.47;52.11;100664.22;5054294;28;20419;-75
2023/03/25 02:17:51;;;;;;;8.63;6.85;;;;;;;9.46;51.81;100658.09;5054406;28;20387;-75
2023/03/25 02:20:36;;;;;;;8.60;6.25;;;;;;;9.48;51.50;100657.94;5053327;28;20447;-76
2023/03/25 02:23:20;;;;;;;7.82;6.05;;;;;;;9.47;51.91;100664.22;5054569;28;20380;-75
2023/03/25 02:25:55;;;;;;;7.97;5.90;;;;;;;9.45;52.18;100659.09;5054475;28;20856;-75
2023/03/25 02:29:00;;;;;;;9.05;6.75;;;;;;;9.54;51.66;100650.19;5054381;28;20377;-75
2023/03/25 02:31:38;;;;;;;8.65;6.43;;;;;;;9.36;51.88;100657.41;5043794;28;20380;-75
2023/03/25 02:34:18;;;;;;;8.33;5.97;;;;;;;9.38;51.87;100655.44;5054161;28;20780;-75
2023/03/25 02:36:55;;;;;;;8.48;6.10;;;;;;;9.34;52.17;100651.47;5054000;28;20419;-75
2023/03/25 02:39:38;;;;;;;7.85;5.88;;;;;;;9.38;52.29;100651.00;5054067;28;20384;-75
2023/03/25 02:42:07;;;;;;;7.07;5.32;;;;;;;9.18;52.17;100663.69;5054058;28;20381;-75
2023/03/25 02:44:40;;;;;;;8.07;5.75;;;;;;;9.26;52.40;100652.28;5053704;28;20434;-75
2023/03/25 02:47:16;;;;;;;7.35;5.88;;;;;;;9.41;51.68;100652.47;5053895;28;20911;-75
2023/03/25 02:49:49;;;;;;;10.73;6.15;;;;;;;9.35;52.36;100651.31;5054139;28;20395;-75
2023/03/25 02:52:28;;;;;;;8.77;6.10;;;;;;;9.34;52.05;100652.28;5053684;28;20888;-75
2023/03/25 02:55:00;;;;;;;7.13;6.00;;;;;;;9.32;52.11;100654.28;5053918;28;20450;-75
2023/03/25 02:57:27;;;;;;;7.85;6.00;;;;;;;9.32;51.65;100646.34;5053349;28;20876;-76
2023/03/25 02:59:54;;;;;;;7.75;5.90;;;;;;;9.30;52.19;100650.16;5053659;28;20926;-75
2023/03/25 03:02:24;;;;;;;11.80;7.40;;;;;;;9.28;52.37;100646.84;5053411;28;20388;-75
2023/03/25 03:04:56;;;;;;;9.07;6.80;;;;;;;9.11;53.09;100648.63;5052720;28;20853;-74
2023/03/25 03:07:25;;;;;;;11.07;8.23;;;;;;;9.23;52.70;100651.78;5053648;28;20472;-75
2023/03/25 03:09:55;;;;;;;9.75;7.45;;;;;;;9.30;52.68;100650.16;5053499;28;20931;-75
2023/03/25 03:12:39;;;;;;;9.43;7.05;;;;;;;9.26;52.66;100649.66;5053366;28;20703;-75
2023/03/25 03:15:27;;;;;;;9.07;6.30;;;;;;;9.35;52.37;100648.66;5052212;28;20464;-75
2023/03/25 03:18:32;;;;;;;10.37;6.47;;;;;;;9.42;52.25;100646.19;5053373;28;20377;-75
2023/03/25 03:21:10;;;;;;;9.40;6.63;;;;;;;9.53;51.35;100645.88;5053288;28;20542;-76
2023/03/25 03:24:04;;;;;;;8.50;6.90;;;;;;;9.50;51.69;100643.53;5053245;28;20384;-76
2023/03/25 03:26:37;;;;;;;9.88;7.25;;;;;;;9.61;51.51;100652.97;5050695;28;20483;-76
2023/03/25 03:29:16;;;;;;;10.18;8.05;;;;;;;9.55;51.20;100643.06;5053153;28;20445;-76
2023/03/25 03:32:03;;;;;;;13.40;12.18;;;;;;;9.67;50.93;100644.41;5053082;28;20451;-75
2023/03/25 03:34:39;;;;;;;10.95;9.80;;;;;;;9.75;50.97;100657.59;5052364;28;20392;-76
2023/03/25 03:37:07;;;;;;;10.80;8.40;;;;;;;9.82;50.86;100652.50;5052040;28;20413;-75
2023/03/25 03:39:35;;;;;;;9.47;6.87;;;;;;;9.81;50.49;100661.41;5053086;28;20439;-76
2023/03/25 03:42:24;;;;;;;10.10;7.95;;;;;;;9.90;50.38;100667.53;5051689;28;20377;-75
2023/03/25 03:44:54;;;;;;;9.43;7.57;;;;;;;9.97;50.59;100667.69;5051933;28;20388;-74
2023/03/25 03:47:27;;;;;;;10.00;8.13;;;;;;;9.92;50.19;100662.91;5053011;28;20392;-75
2023/03/25 03:50:00;;;;;;;9.93;7.80;;;;;;;9.98;50.56;100664.88;5052728;28;20769;-76
2023/03/25 03:52:51;;;;;;;10.13;8.50;;;;;;;10.01;50.05;100655.78;5052452;28;20485;-75
2023/03/25 03:55:28;;;;;;;10.52;7.40;;;;;;;10.03;50.48;100664.38;5052589;28;20419;-76
2023/03/25 03:58:05;;;;;;;9.68;8.13;;;;;;;10.08;50.11;100672.66;5052508;28;20896;-76
2023/03/25 04:01:01;;;;;;;9.57;6.82;;;;;;;10.01;49.82;100667.22;5052706;28;20379;-75
2023/03/25 04:03:37;;;;;;;9.88;7.20;;;;;;;9.90;50.03;100663.09;5042744;28;20414;-75
2023/03/25 04:06:16;;;;;;;10.57;7.28;;;;;;;9.91;50.38;100667.38;5041291;28;20385;-75
2023/03/25 04:08:57;;;;;;;9.75;7.70;;;;;;;9.76;51.09;100669.88;5039918;28;20404;-75
2023/03/25 04:11:29;;;;;;;10.35;8.35;;;;;;;9.78;51.05;100672.34;5040493;28;20475;-75
2023/03/25 04:13:58;;;;;;;11.23;8.45;;;;;;;9.85;50.92;100676.00;5039724;28;20420;-74
2023/03/25 04:16:24;;;;;;;10.43;7.57;;;;;;;9.82;51.37;100676.31;5041436;28;20444;-75
2023/03/25 04:18:52;;;;;;;10.23;7.88;;;;;;;9.84;50.99;100673.50;5040026;28;20398;-75
2023/03/25 04:21:19;;;;;;;9.77;7.63;;;;;;;9.73;51.13;100672.84;5040641;28;20378;-75
2023/03/25 04:23:45;;;;;;;12.75;8.88;;;;;;;9.82;50.99;100676.31;5040632;28;20442;-74
2023/03/25 04:26:12;;;;;;;11.73;9.03;;;;;;;9.82;50.91;100681.59;5039164;28;20372;-75
2023/03/25 04:28:40;;;;;;;14.38;10.30;;;;;;;9.86;50.79;100676.81;5041900;28;20871;-75
2023/03/25 04:31:16;;;;;;;13.45;9.18;;;;;;;9.82;50.71;100680.78;5040157;28;20377;-75
2023/03/25 04:33:49;;;;;;;18.95;11.90;;;;;;;9.61;51.42;100674.16;5034699;28;20429;-75
2023/03/25 04:36:15;;;;;;;20.65;13.35;;;;;;;9.52;51.44;100681.25;5030602;28;20878;-75
2023/03/25 04:38:44;;;;;;;22.67;16.27;;;;;;;9.53;51.28;100685.56;5037327;28;20567;-76
2023/03/25 04:41:11;;;;;;;17.98;12.98;;;;;;;9.45;51.50;100687.38;5040730;28;20716;-76
2023/03/25 04:43:38;;;;;;;20.38;13.00;;;;;;;9.54;51.30;100679.28;5040259;28;20386;-76
2023/03/25 04:46:04;;;;;;;13.48;9.88;;;;;;;9.49;52.12;100693.97;5038890;28;20717;-75
2023/03/25 04:48:34;;;;;;;16.00;10.73;;;;;;;9.50;51.91;100699.13;5042153;28;20426;-76
2023/03/25 04:51:02;;;;;;;13.38;8.77;;;;;;;9.33;52.03;100700.09;5040475;28;20444;-75
2023/03/25 04:53:28;;;;;;;14.75;8.70;;;;;;;9.37;52.10;100712.00;5041582;28;20386;-76
2023/03/25 04:55:54;;;;;;;19.00;8.90;;;;;;;9.35;52.05;100711.34;5042275;28;20429;-75
2023/03/25 04:58:20;;;;;;;14.77;9.55;;;;;;;9.36;51.94;100713.81;5041596;28;20381;-75
2023/03/25 05:00:49;;;;;;;11.57;8.45;;;;;;;9.36;52.43;100703.25;5040885;28;20433;-76
2023/03/25 05:03:15;;;;;;;14.05;9.30;;;;;;;9.38;52.57;100705.69;5041663;28;20386;-76
2023/03/25 05:05:41;;;;;;;14.30;8.48;;;;;;;9.35;52.36;100711.34;5040728;28;20381;-75
2023/03/25 05:08:07;;;;;;;14.77;8.60;;;;;;;9.31;52.82;100716.13;5039110;28;20382;-75
2023/03/25 05:10:33;;;;;;;13.23;8.48;;;;;;;9.37;52.27;100712.81;5043024;28;20839;-76
2023/03/25 05:13:04;;;;;;;12.35;9.07;;;;;;;9.44;52.75;100712.19;5048275;28;20380;-75
2023/03/25 05:15:34;;;;;;;13.35;8.88;;;;;;;9.49;52.26;100720.44;5041769;28;20422;-75
2023/03/25 05:18:00;;;;;;;14.95;8.45;;;;;;;9.52;52.47;100709.53;5040315;28;20386;-75
2023/03/25 05:20:26;;;;;;;12.90;8.73;;;;;;;9.70;52.19;100706.75;5040877;28;20386;-75
2023/03/25 05:22:52;;;;;;;14.45;8.73;;;;;;;9.76;51.73;100709.56;5039272;28;21085;-76
2023/03/25 05:25:20;;;;;;;12.63;9.40;;;;;;;9.92;51.96;100702.63;5038473;28;20851;-75
2023/03/25 05:27:46;;;;;;;15.90;9.73;;;;;;;10.14;51.51;100709.06;5040001;28;20382;-75
2023/03/25 05:30:13;;;;;;;15.00;10.20;;;;;;;10.36;51.39;100696.97;5048407;28;20750;-76
2023/03/25 05:32:39;;;;;;;13.75;9.60;;;;;;;10.59;50.77;100696.25;5051667;28;20401;-76
2023/03/25 05:35:06;;;;;;;14.30;9.65;;;;;;;10.76;50.48;100708.44;5051477;28;20399;-76
2023/03/25 05:37:31;;;;;;;17.17;9.40;;;;;;;10.93;50.40;100695.13;5051068;28;20393;-76
2023/03/25 05:39:57;;;;;;;20.33;9.73;;;;;;;11.07;50.42;100675.81;5051360;28;20397;-76
2023/03/25 05:42:23;;;;;;;14.60;9.48;;;;;;;11.25;50.31;100681.72;5051038;28;20377;-75
2023/03/25 05:44:52;;;;;;;13.07;9.27;;;;;;;11.40;50.01;100686.28;5051081;28;20369;-75
2023/03/25 05:47:22;;;;;;;13.02;8.93;;;;;;;11.62;49.80;100677.47;5050826;28;20464;-75
2023/03/25 05:49:49;;;;;;;14.35;9.30;;;;;;;11.68;49.57;100678.59;5050853;28;20455;-75
2023/03/25 05:52:16;;;;;;;14.73;9.23;;;;;;;11.88;49.49;100672.78;5049904;28;20411;-77
2023/03/25 05:54:45;;;;;;;15.57;8.88;;;;;;;12.07;49.14;100674.16;5050385;28;20441;-75
2023/03/25 05:57:12;;;;;;;15.15;8.90;;;;;;;12.33;48.82;100669.22;5050193;28;20465;-75
2023/03/25 05:59:37;;;;;;;12.93;9.02;;;;;;;12.50;48.26;100680.50;5050095;28;20391;-75
2023/03/25 06:02:11;;;;;;;13.15;9.32;;;;;;;12.59;48.41;100687.38;5050570;28;20369;-76
2023/03/25 06:04:40;;;;;;;14.50;9.27;;;;;;;12.74;47.94;100689.19;5050081;28;20907;-76
2023/03/25 06:07:18;;;;;;;13.67;9.17;;;;;;;12.90;47.80;100682.88;5030615;28;20371;-77
2023/03/25 06:09:48;;;;;;;16.10;9.43;;;;;;;13.01;47.66;100671.72;5031241;28;20390;-77
2023/03/25 06:12:16;;;;;;;12.82;9.55;;;;;;;13.10;47.20;100675.94;5030153;28;20851;-76
2023/03/25 06:14:44;;;;;;;17.05;11.25;;;;;;;13.17;47.07;100676.81;5031112;28;20423;-75
2023/03/25 06:17:11;;;;;;;13.77;9.57;;;;;;;13.33;46.88;100675.00;5030974;28;20894;-76
2023/03/25 06:19:40;;;;;;;15.73;11.03;;;;;;;13.42;47.18;100675.69;5031096;28;20454;-75
2023/03/25 06:22:10;;;;;;;12.30;9.32;;;;;;;13.51;47.47;100675.38;5030629;28;20402;-75
2023/03/25 06:24:36;;;;;;;11.73;8.82;;;;;;;13.68;47.57;100685.75;5030614;28;20401;-75
2023/03/25 06:27:03;;;;;;;12.02;9.25;;;;;;;13.71;47.48;100690.72;5031434;28;20398;-76
2023/03/25 06:29:28;;;;;;;15.40;9.60;;;;;;;13.73;47.21;100686.84;5036160;28;20713;-76
2023/03/25 06:31:54;;;;;;;11.65;8.95;;;;;;;13.83;47.00;100693.66;5040365;28;20378;-76
2023/03/25 06:34:19;;;;;;;13.03;9.87;;;;;;;13.90;46.39;100699.88;5038291;28;20379;-75
2023/03/25 06:36:48;;;;;;;13.50;10.40;;;;;;;13.97;46.62;100698.09;5044864;28;20824;-75
2023/03/25 06:39:15;;;;;;;15.38;9.77;;;;;;;14.02;46.39;100695.69;5052039;28;20373;-77
2023/03/25 06:41:41;;;;;;;15.63;10.60;;;;;;;14.05;46.21;100687.31;5053937;28;20403;-76
2023/03/25 06:44:06;;;;;;;15.23;10.63;;;;;;;14.20;46.48;100702.38;5052476;28;20709;-76
2023/03/25 06:46:32;;;;;;;16.93;10.03;;;;;;;14.27;45.95;100704.06;5049537;28;20433;-75
2023/03/25 06:48:57;;;;;;;14.68;10.23;;;;;;;14.39;46.05;100698.22;5064485;28;20403;-76
2023/03/25 06:51:23;;;;;;;15.23;9.83;;;;;;;14.55;45.58;100700.56;5062507;28;20790;-76
2023/03/25 06:53:48;;;;;;;13.93;10.07;;;;;;;14.65;45.57;100692.22;5067680;28;20877;-76
2023/03/25 06:56:14;;;;;;;15.03;10.20;;;;;;;14.85;45.30;100703.00;5061859;28;20490;-75
2023/03/25 06:58:40;;;;;;;28.50;15.50;;;;;;;15.03;45.12;100695.25;5061458;28;20861;-76
2023/03/25 07:01:06;;;;;;;15.50;10.55;;;;;;;15.20;44.93;100686.94;5052861;28;20725;-75
2023/03/25 07:03:36;;;;;;;14.60;9.35;;;;;;;15.36;44.35;100688.38;5062926;28;20466;-76
2023/03/25 07:06:02;;;;;;;14.15;9.95;;;;;;;15.52;43.77;100697.88;5071356;28;20766;-76
2023/03/25 07:08:27;;;;;;;17.17;10.50;;;;;;;15.63;43.35;100690.09;5064176;28;20867;-75
2023/03/25 07:10:53;;;;;;;24.43;13.70;;;;;;;15.83;43.13;100681.28;5073446;28;20910;-76
2023/03/25 07:13:18;;;;;;;14.07;10.43;;;;;;;16.08;42.72;100696.69;5073184;28;20462;-76
2023/03/25 07:15:44;;;;;;;13.33;9.03;;;;;;;16.25;42.42;100696.06;5067547;28;20436;-78
2023/03/25 07:18:10;;;;;;;12.93;8.73;;;;;;;16.34;42.70;100694.00;5056875;28;20470;-76
2023/03/25 07:20:35;;;;;;;12.45;9.27;;;;;;;16.44;42.17;100680.22;5065781;28;20369;-75
2023/03/25 07:23:01;;;;;;;13.13;9.10;;;;;;;16.53;42.10;100686.97;5052636;28;20381;-75
2023/03/25 07:25:26;;;;;;;13.85;9.68;;;;;;;16.65;41.86;100679.09;5069725;28;20706;-76
2023/03/25 07:27:52;;;;;;;22.87;13.77;;;;;;;16.71;41.76;100672.91;5073544;28;20739;-76
2023/03/25 07:30:17;;;;;;;12.75;9.13;;;;;;;16.73;41.42;100684.22;5072133;28;20462;-77
2023/03/25 07:32:46;;;;;;;14.90;9.43;;;;;;;16.82;41.32;100688.31;5072574;28;20375;-76
2023/03/25 07:35:12;;;;;;;14.18;9.57;;;;;;;16.87;41.11;100684.19;5072215;28;20856;-76
2023/03/25 07:37:37;;;;;;;21.13;13.20;;;;;;;16.95;41.84;100690.16;5073127;28;20375;-77
2023/03/25 07:40:03;;;;;;;14.70;10.17;;;;;;;16.97;41.24;100689.94;5065477;28;20820;-76
2023/03/25 07:42:29;;;;;;;14.38;9.93;;;;;;;17.08;41.06;100683.09;5061297;28;20956;-79
2023/03/25 07:44:54;;;;;;;15.77;10.23;;;;;;;17.24;41.14;100687.94;5070538;28;20473;-75
2023/03/25 07:47:20;;;;;;;17.35;11.00;;;;;;;17.30;40.51;100675.53;5060565;28;20396;-77
2023/03/25 07:49:46;;;;;;;54.40;37.57;;;;;;;17.35;41.26;100684.56;5062706;28;20572;-76
2023/03/25 07:52:12;;;;;;;20.73;13.73;;;;;;;17.50;40.75;100680.78;5071478;28;20451;-77
2023/03/25 07:54:37;;;;;;;25.57;16.67;;;;;;;17.65;40.35;100680.47;5071594;28;20378;-77
2023/03/25 07:57:03;;;;;;;16.65;11.55;;;;;;;17.68;40.28;100688.91;5071298;28;20410;-76
2023/03/25 07:59:28;;;;;;;17.57;11.10;;;;;;;17.85;39.36;100677.63;5072358;28;20864;-75
2023/03/25 08:01:54;;;;;;;13.90;10.75;;;;;;;17.98;39.34;100677.53;5070972;28;20911;-76
2023/03/25 08:04:19;;;;;;;36.43;24.37;;;;;;;18.01;39.74;100673.63;5070003;28;20394;-76
2023/03/25 08:06:45;;;;;;;10.77;8.85;;;;;;;18.07;39.19;100670.84;5070517;28;20373;-77
2023/03/25 08:09:10;;;;;;;11.00;8.43;;;;;;;18.16;38.95;100674.09;5071043;28;20851;-77
2023/03/25 08:11:36;;;;;;;15.50;9.23;;;;;;;18.21;38.75;100665.38;5071870;28;20387;-77
2023/03/25 08:14:01;;;;;;;13.40;9.10;;;;;;;18.29;38.56;100673.97;5072660;28;20371;-75
2023/03/25 08:16:28;;;;;;;16.87;9.17;;;;;;;18.25;38.45;100661.22;5072290;28;20411;-77
2023/03/25 08:18:54;;;;;;;13.43;8.93;;;;;;;18.29;38.54;100662.41;5072756;28;20776;-75
2023/03/25 08:21:23;;;;;;;13.00;9.32;;;;;;;18.34;38.61;100670.59;5072635;28;20997;-75
2023/03/25 08:23:57;;;;;;;14.63;9.00;;;;;;;18.43;38.23;100661.22;5072456;28;20374;-76
2023/03/25 08:26:24;;;;;;;13.40;9.40;;;;;;;18.52;37.93;100659.06;5072490;28;20418;-77
2023/03/25 08:28:50;;;;;;;11.80;9.60;;;;;;;18.55;37.77;100664.00;5072485;28;20400;-75
2023/03/25 08:31:15;;;;;;;12.13;9.38;;;;;;;18.62;37.63;100662.03;5072003;28;20368;-76
2023/03/25 08:33:41;;;;;;;15.47;9.07;;;;;;;18.63;37.60;100650.25;5067531;28;20392;-76
2023/03/25 08:36:12;;;;;;;13.98;9.50;;;;;;;18.73;37.56;100645.16;5055983;28;20554;-75
2023/03/25 08:38:38;;;;;;;12.02;9.48;;;;;;;18.71;37.54;100638.41;5051962;28;20388;-76
2023/03/25 08:41:04;;;;;;;17.77;10.80;;;;;;;18.81;37.61;100638.69;5051513;28;20372;-75
2023/03/25 08:43:29;;;;;;;13.70;10.00;;;;;;;18.97;37.79;100633.75;5051642;28;20450;-76
2023/03/25 08:45:55;;;;;;;12.90;9.67;;;;;;;18.99;37.92;100632.47;5051841;28;20433;-76
2023/03/25 08:48:21;;;;;;;11.52;9.45;;;;;;;19.15;37.95;100638.25;5052254;28;20385;-76
2023/03/25 08:50:47;;;;;;;18.55;10.52;;;;;;;19.30;37.81;100630.56;5051853;28;20446;-76
2023/03/25 08:53:12;;;;;;;11.77;9.93;;;;;;;19.36;37.82;100634.25;5051894;28;20503;-77
2023/03/25 08:55:38;;;;;;;13.13;9.43;;;;;;;19.48;37.86;100627.00;5052456;28;20412;-77
2023/03/25 08:58:05;;;;;;;14.63;9.90;;;;;;;19.60;38.09;100633.22;5051706;28;20396;-77
2023/03/25 09:00:31;;;;;;;20.67;9.10;;;;;;;19.62;38.16;100636.47;5050625;28;20883;-76
2023/03/25 09:02:57;;;;;;;13.35;8.35;;;;;;;19.64;38.18;100641.63;5051774;28;20404;-76
2023/03/25 09:05:24;;;;;;;20.63;8.52;;;;;;;19.77;37.76;100633.41;5051139;28;20446;-77
2023/03/25 09:07:49;;;;;;;15.32;8.85;;;;;;;19.80;37.74;100634.78;5049869;28;20737;-77
2023/03/25 09:10:15;;;;;;;16.37;8.57;;;;;;;19.86;37.88;100623.91;5051417;28;20410;-76
2023/03/25 09:12:41;;;;;;;12.98;8.77;;;;;;;19.97;37.70;100616.06;5050393;28;20380;-77
2023/03/25 09:15:08;;;;;;;11.85;8.43;;;;;;;19.99;37.82;100606.72;5050231;28;20381;-77
2023/03/25 09:17:34;;;;;;;11.75;8.10;;;;;;;20.02;37.44;100616.19;5052328;28;20510;-76
2023/03/25 09:19:59;;;;;;;10.37;7.87;;;;;;;20.11;37.35;100609.38;5050215;28;20381;-77
2023/03/25 09:22:25;;;;;;;12.77;7.97;;;;;;;20.10;37.28;100604.25;5048761;28;20369;-76
2023/03/25 09:24:50;;;;;;;11.73;8.43;;;;;;;20.25;37.39;100618.03;5050011;28;20381;-77
2023/03/25 09:27:16;;;;;;;14.47;9.20;;;;;;;20.33;37.30;100604.22;5050219;28;20795;-77
2023/03/25 09:29:41;;;;;;;11.07;8.43;;;;;;;20.37;37.47;100600.00;5050594;28;20780;-76
2023/03/25 09:32:08;;;;;;;11.23;8.13;;;;;;;20.49;37.22;100599.13;5050854;28;20388;-77
2023/03/25 09:34:33;;;;;;;13.73;8.73;;;;;;;20.59;37.22;100600.16;5050582;28;20442;-74
2023/03/25 09:37:00;;;;;;;12.00;8.60;;;;;;;20.69;37.07;100602.28;5051248;28;20412;-76
2023/03/25 09:39:26;;;;;;;14.27;8.43;;;;;;;20.67;37.15;100593.63;5051185;28;20381;-76
2023/03/25 09:42:19;;;;;;;12.95;8.82;;;;;;;20.83;37.19;100591.19;5051321;28;20376;-77
2023/03/25 09:44:57;;;;;;;13.33;8.50;;;;;;;20.90;37.13;100589.19;5050631;28;20410;-75
2023/03/25 09:47:24;;;;;;;12.93;9.00;;;;;;;21.02;36.87;100578.34;5050975;28;20368;-75
2023/03/25 09:49:55;;;;;;;12.27;8.85;;;;;;;21.03;36.76;100578.13;5051440;28;21189;-77
2023/03/25 09:52:28;;;;;;;14.18;9.88;;;;;;;21.10;36.92;100576.06;5050637;28;20925;-77
2023/03/25 09:55:03;;;;;;;11.83;8.83;;;;;;;21.28;36.80;100576.88;5050677;28;20380;-76
2023/03/25 09:57:32;;;;;;;11.90;8.50;;;;;;;21.42;36.56;100583.59;5051419;28;20385;-76
2023/03/25 10:00:00;;;;;;;12.27;9.02;;;;;;;21.55;36.60;100569.00;5051473;28;20408;-76
2023/03/25 10:03:06;;;;;;;9.37;8.23;;;;;;;21.70;36.53;100569.22;5051403;28;20885;-76
2023/03/25 10:05:49;;;;;;;11.05;8.63;;;;;;;21.68;36.59;100568.66;5051428;28;20376;-76
2023/03/25 10:08:49;;;;;;;11.80;9.02;;;;;;;21.76;36.49;100567.41;5051802;28;20385;-75
2023/03/25 10:11:40;;;;;;;14.38;9.02;;;;;;;21.82;36.32;100558.31;5051382;28;20878;-77
2023/03/25 10:14:12;;;;;;;11.57;8.90;;;;;;;21.81;36.39;100558.59;5054989;28;20380;-76
2023/03/25 10:16:46;;;;;;;10.13;8.25;;;;;;;21.87;36.03;100552.19;5055266;28;20400;-76
2023/03/25 10:19:21;;;;;;;14.95;8.48;;;;;;;22.02;35.87;100554.25;5055358;28;20381;-76
2023/03/25 10:22:01;;;;;;;11.40;8.38;;;;;;;22.03;35.89;100548.63;5055172;28;20373;-77
2023/03/25 10:24:33;;;;;;;11.60;7.93;;;;;;;22.22;35.61;100551.84;5055439;28;20380;-76
2023/03/25 10:27:16;;;;;;;13.68;7.53;;;;;;;22.33;35.32;100539.31;5055468;28;20373;-76
2023/03/25 10:30:04;;;;;;;12.35;7.80;;;;;;;22.44;35.23;100541.06;5055135;28;20438;-75
2023/03/25 10:32:40;;;;;;;8.55;7.15;;;;;;;22.45;34.93;100545.38;5053905;28;20805;-76
2023/03/25 10:35:15;;;;;;;8.38;6.57;;;;;;;22.50;34.84;100539.22;5054133;28;20416;-76
2023/03/25 10:37:41;;;;;;;11.40;7.78;;;;;;;22.57;34.66;100533.63;5054509;28;20381;-76
2023/03/25 10:40:20;;;;;;;12.65;6.90;;;;;;;22.59;34.56;100534.19;5054348;28;20373;-77
2023/03/25 10:43:24;;;;;;;10.50;6.75;;;;;;;22.57;34.40;100526.31;5054200;28;20470;-76
2023/03/25 10:45:54;;;;;;;10.07;6.60;;;;;;;22.71;34.26;100524.84;5054379;28;20361;-78
2023/03/25 10:48:26;;;;;;;10.68;6.38;;;;;;;22.70;34.94;100528.59;5054739;28;20377;-76
2023/03/25 10:51:08;;;;;;;10.50;7.10;;;;;;;22.55;35.08;100527.66;5053815;28;20404;-76
2023/03/25 10:53:34;;;;;;;9.13;6.57;;;;;;;22.48;35.06;100525.97;5054053;28;20753;-77
2023/03/25 10:56:07;;;;;;;11.32;6.82;;;;;;;22.56;35.10;100527.38;5053959;28;20428;-75
2023/03/25 10:58:36;;;;;;;8.20;6.43;;;;;;;22.48;35.34;100517.03;5054255;28;20861;-76
2023/03/25 11:01:12;;;;;;;7.57;6.20;;;;;;;22.74;35.05;100520.00;5054880;28;20381;-76
2023/03/25 11:03:40;;;;;;;8.13;5.75;;;;;;;22.86;34.67;100518.75;5053061;28;20760;-77
2023/03/25 11:06:16;;;;;;;7.50;5.78;;;;;;;22.70;34.81;100508.88;5054354;28;20372;-77
2023/03/25 11:09:14;;;;;;;7.88;5.75;;;;;;;22.55;34.71;100506.84;5054473;28;20381;-77
2023/03/25 11:11:42;;;;;;;10.43;5.90;;;;;;;22.69;34.13;100516.19;5053361;28;20364;-76
2023/03/25 11:14:09;;;;;;;7.18;5.43;;;;;;;22.84;33.64;100502.00;5052628;28;20389;-76
2023/03/25 11:16:53;;;;;;;11.70;5.25;;;;;;;23.09;33.13;100508.72;5055232;28;20404;-76
2023/03/25 11:19:27;;;;;;;5.03;4.40;;;;;;;23.10;32.27;100502.22;5067028;28;20835;-77
2023/03/25 11:21:57;;;;;;;8.77;4.63;;;;;;;23.02;31.66;100503.50;5072178;28;20383;-76
2023/03/25 11:24:30;;;;;;;6.65;4.85;;;;;;;23.01;31.78;100485.66;5073179;28;20498;-75
2023/03/25 11:26:55;;;;;;;7.72;5.30;;;;;;;22.94;31.46;100490.47;5071859;28;20383;-76
2023/03/25 11:29:24;;;;;;;6.37;4.83;;;;;;;23.03;31.36;100488.06;5073101;28;20481;-77
2023/03/25 11:32:04;;;;;;;5.97;4.50;;;;;;;23.15;31.35;100487.94;5073144;28;20385;-77
2023/03/25 11:34:30;;;;;;;6.47;4.85;;;;;;;23.24;31.27;100476.38;5073369;28;20390;-76
2023/03/25 11:37:14;;;;;;;6.85;4.53;;;;;;;23.12;31.27;100483.88;5073507;28;20398;-76